Filtrer par Nom Sexe Groupe d'age
La Bourgogne Cyclo GranFondo 2017
RG. DOS. TEMPS CAT RG. POINTS
1 241 POLVERONI DAVID 04:18:44 C 1 300.00 NOYAREY, France
2 117 RUFFAUT PIERRE 04:18:44 C 2 299.00 ARBUSIGNY, France
3 104 VUILLIER DAMIEN 04:21:55 D 1 300.00 CUSE ET ADRISANS, France
4 139 DE VECCHI DAVID 04:21:55 E 1 300.00 NAN S/S THIL, France
5 347 DESTOOP BRECHT 04:21:56 D 2 299.00 WAREGEM, BELGIQUE
6 236 COGNET STEPHANE 04:21:56 D 3 298.00 CHAMBERY, FRANCE
7 488 CLAVEL SYLVAIN 04:21:56 C 3 298.00 ROCHETOIRIN, France
8 468 DOMANICO BAPTISTE 04:21:56 C 4 297.00 Essert, France
9 496 MASONI YOANN 04:21:56 D 4 297.00 PONTARLIER, FRANCE
10 493 SIMONIN FLORIAN 04:21:57 C 5 296.00 MAICHE, FRANCE
11 222 PESSEY JEAN FRANCIS 04:21:57 D 5 296.00 Thones, France
12 417 VERDENAL JOCELYN 04:21:57 C 6 295.00 EPFIG, France
13 162 TURNES WILLIAM 04:28:10 E 2 299.00 LA TOUSSUIRE, FRANCE
14 123 POITTIER CYRILLE 04:30:08 E 3 298.00 REBOUILLON, FRANCE
15 220 SCHITTECATTE BRAM 04:30:08 D 6 295.00 Gent, Belgique
16 240 CHEVALIER PIERRE 04:30:08 F 1 300.00 VILLIEU, FRANCE
17 116 LOURD RODOLPHE 04:30:09 D 7 294.00 FONTAINE, France
18 385 DUPOUHET ALEXANDRE 04:31:21 D 8 293.00 METZ-TESSY, FRANCE
19 165 RICHARD DAMIEN 04:31:24 D 9 292.00 EPINAL, France
20 226 FRICKER DANIEL 04:31:24 E 4 297.00 RIEDISHEIM, France
21 112 PANNECOUCKE WESLEY 04:31:24 D 10 291.00 Ieper, Belgique
22 108 CHAVANON JEAN_LUC 04:31:31 F 2 299.00 St Martin D Heres, France
23 81 CARTAL MARC 04:31:34 G1 1 300.00 LOUDES, France
24 231 CLOITRE GUILLAUME 04:31:37 C 7 294.00 Saint-Denis, France
25 371 LUCAS JACQUES 04:31:46 G1 2 299.00 MOUTIERS, FRANCE
26 470 PEDRENO MAXENCE 04:32:13 C 8 293.00 MONTCHANIN, FRANCE
27 166 MARTINET GILLES 04:32:13 E 5 296.00 SAINT PIERRE D ALBIGNY, FRANCE
28 214 BOSSLER JEAN FRANCOIS 04:32:52 E 6 295.00 MILLY LAMARTINE, FRANCE
29 127 DELEERSNYDER ARNAUD 04:32:52 E 7 294.00 01310, France
30 384 BOURNAND REMIU 04:32:54 D 11 290.00 CALUIRE ET CUIRE, FRANCE
31 478 CARRIER GERALD 04:32:55 E 8 293.00 BRENOD, FRANCE
32 230 SCHUEHMACHER CYRIL 04:36:39 C 9 292.00 ECHALLON, FRANCE
33 491 BARONE FABIO 04:36:39 D 12 289.00 La Chaux-de-Fonds, Suisse
34 475 DESBRINI CEDRIC 04:36:40 E 9 292.00 ESSERTS BLAY, FRANCE
35 494 LEBAS SEBASTIEN 04:39:08 E 10 291.00 D HUISON LONGUEVILLE, FRANCE
36 313 BARREIRA AUGUSTE 04:40:55 E 11 290.00 LA FERRIERE EN PARTHENAY, FRANCE
37 381 ? ? 04:43:39 J 1 300.00 ,
38 150 BORRION REMI 04:43:40 E 12 289.00 ASNIERES-LES-DIJON, FRANCE
39 454 DENIS LUDOVIC 04:43:40 E 13 288.00 AUDUN LE ROMAN, FRANCE
40 130 CAUWENBERGH GERT 04:43:41 D 13 288.00 ANTWERPEN, BELGIQUE
41 160 BABYTCHEFF MARTIAL 04:43:41 F 3 298.00 PERS-JUSSY, France
42 430 FAGGION GIUSEPPE 04:43:41 F 4 297.00 LULLY, Suisse
43 476 OSKWAREK SYLVAIN 04:45:41 G1 3 298.00 Montcel, France, France
44 305 DEGAND JEAN ANTOINE 04:45:43 C 10 291.00 LA MADELEINE, FRANCE
45 359 HERBIN LAURENT 04:45:43 F 5 296.00 BOURG LA REINE, FRANCE
46 215 ISCHARD FREDERIC 04:45:44 D 14 287.00 , FRANCE
47 216 DUTAILLY JACQUES 04:45:44 G1 4 297.00 LILLERS, France
48 19 CARPENTIER JIMMY 04:45:52 C 11 290.00 AMPHION-LES-BAINS, France
49 429 MINOT ALEXANDRE 04:45:52 E 14 287.00 MONTAGNY LES BEAUNE, SUISSE
50 485 QUéQUEVILLE STéPHANE 04:45:52 E 15 286.00 IS SUR TILLE, FRANCE
51 466 GIRARD BENOIT 04:45:52 D 15 286.00 TOURNUS, France
52 243 PENKALLA ANTOINE 04:45:52 C 12 289.00 LONGECOURT EN PLAINE, FRANCE
53 483 GORRET NICOLAS 04:45:52 C 13 288.00 IS SUR TILLE, FRANCE
54 61 CORREGGIO PASCAL 04:45:53 F 6 295.00 PIERREVERT, France
55 489 SAGET GUIBERT 04:45:53 F 7 294.00 PERSAN, FRANCE
56 106 DURA GILBERT 04:45:53 F 8 293.00 VENISSIEUX, FRANCE
57 461 DAVID FRéDéRICK 04:45:53 D 16 285.00 VILLEFRANCHE SUR SAONE, FRANCE
58 320 RUYSSCHAERT TIJS 04:45:53 D 17 284.00 GENT, BELGIQUE
59 447 DUCHER JéRôME 04:45:53 E 16 285.00 BESANçON, FRANCE
60 219 MOYSE ETIENNE-MARIE 04:45:53 D 18 283.00 GENEUILLE, France
61 249 PERRIN THOMAS 04:45:54 C 14 287.00 ESPRELS, FRANCE
62 480 PERRIN JORDAN 04:45:55 C 15 286.00 LYON, FRANCE
63 148 WEYER SEBASTIEN 04:45:55 E 17 284.00 IGNY, FRANCE
64 474 GRARD MATTHIEU 04:47:00 C 16 285.00 ECULLY, FRANCE
65 158 DELMEE GREGORY 04:47:37 E 18 283.00 MOUSCRON, Belgique
66 445 PETIT PASCAL 04:47:42 F 9 292.00 VENISSIEUX, FRANCE
67 133 BONNIN DAVID 04:49:44 E 19 282.00 DELFT, Pays-Bas
68 229 BAGNARIOL JULIEN 04:49:45 D 19 282.00 , FRANCE
69 464 CANNELLE EDDY 04:50:34 E 20 281.00 Premanon, France
70 120 WAELTI CHRISTIAN 04:51:34 E 21 280.00 LA NEUVEVILLE, SUISSE
71 481 TOULON BRUNO 04:52:22 D 20 281.00 PALAISEAU, FRANCE
72 458 DOUSSOT JONAS 04:52:51 D 21 280.00 MACON, FRANCE
73 244 FEREIRE BRUNO 04:53:28 F 10 291.00 Rillieux la pape, France
74 431 LAÏLY STEPHANE 04:57:39 E 22 279.00 BESANCON, FRANCE
75 138 THIMON GILBERT 04:57:39 F 11 290.00 TRAMAYES, FRANCE
76 497 ALBRYCHT ROMUALD 04:57:39 F 12 289.00 PARON, FRANCE
77 135 VINCENT PASCAL 04:57:42 E 23 278.00 THURINS, France
78 155 ISMAEL COSTA 04:57:43 F 13 288.00 GENEVE, Suisse
79 124 HAEFELI MATTHIAS 04:58:21 E 24 277.00 FROIDEVILLE, SUISSE
80 319 DE WITTE JURGEN 05:00:23 E 25 276.00 TIELRODE, Belgique
81 145 VAN DEN HEUVEL BENNIE 05:00:51 F 14 287.00 STRIJEN, Pays-Bas
82 29 LECOCQ VASSORT CEDRIC 05:00:51 E 26 275.00 BREUILLET, France
83 314 FOREST JULIEN 05:00:51 D 22 279.00 , FRANCE
84 125 THORMANN RALPH 05:00:51 F 15 286.00 KARLSRUHE, Allemagne
85 304 LAROCHETTE SIMON 05:00:52 C 17 284.00 COBRIEUX, FRANCE
86 486 JOLIVOT SEBASTIEN 05:00:52 E 27 274.00 LE CREUSOT, FRANCE
87 361 MARION EMILIEN 05:00:52 D 23 278.00 MEGEVE, France
88 387 COUDERT RONAN 05:00:52 D 24 277.00 LYON, FRANCE
89 345 RYCKBOSCH JAN 05:00:52 F 16 285.00 MELSELE, Belgique
90 110 BERAUD PASCAL 05:00:52 F 17 284.00 PLAISANCE DU TOUCH, France
91 209 THOMPSON ANDREW 05:00:53 E 28 273.00 salcombe, Royaume-Uni
92 338 KINET PATRICK 05:00:53 F 18 283.00 LE CHEYLAS, FRANCE
93 396 ROCHE JEAN FRANCOIS 05:00:53 G1 5 296.00 LEDIGNAN, France
94 469 CAVAGNA CLAUDE 05:00:53 F 19 282.00 LYON, France
95 487 DAVID GUILLAUME 05:00:54 F 20 281.00 LES DEUX ALPES, FRANCE
96 118 BECAM JEAN-YVES 05:00:54 G1 6 295.00 CHOLET, France
97 477 GENETET THOMAS 05:00:55 E 29 272.00 VARENNES SAINT SAUVEUR, France
98 402 QUELIN GERARD 05:01:02 G1 7 294.00 BONNEVILLE, France
99 342 RAHOENS CHRISTOPHE 05:04:23 D 25 276.00 VOLLEZELE, Belgique
100 45 THIRY FREDERIC 05:05:39 E 30 271.00 MEYLAN, FRANCE
101 395 MAIRE PIERRICK 05:08:17 D 26 275.00 SEIGNELAY, FRANCE
102 119 VERGER ERIC 05:10:20 F 21 280.00 MONTELIMAR, France
103 438 DUPONT STEPHANE 05:10:20 F 22 279.00 SAINT MARTIN DES CHAMPS, FRANCE
104 400 LEBAUDY ANTHONY 05:10:20 E 31 270.00 PULNOY, FRANCE
105 131 SIMON YVES 05:10:20 G1 8 293.00 ACCOLAY, FRANCE
106 114 CORNU MAURICE 05:10:21 G2 1 300.00 TONNERRE, France
107 383 DUMARTHERAY SERGE 05:10:21 E 32 269.00 MONT-SUR-ROLLE, SUISSE
108 163 LESPAGNOL LAURENT 05:10:21 E 33 268.00 COURBEVOIE, FRANCE
109 411 LAVAUD ERIC 05:10:22 E 34 267.00 VENDEUVRE SUR BARSE, FRANCE
110 363 RENAUDIE DENIS 05:10:22 F 23 278.00 EGREVILLE, FRANCE
111 26 CLEMENT LAURENT 05:10:22 F 24 277.00 ANNONAY, France
112 143 ROUSSON JEAN 05:10:22 G1 9 292.00 Montchanin, France
113 225 REZZE ALAIN 05:10:23 F 25 276.00 VILLEFRANCHE SUR SOANE, FRANCE
114 434 ROUSSELLE THIERRY 05:10:23 F 26 275.00 joigny sur meuse, France
115 234 ESTIENNE ADRIEN 05:10:23 C 18 283.00 CHAMONIX, FRANCE
116 424 COSTET CYRIL 05:10:29 E 35 266.00 SAINT CHAFFREY, France
117 375 FARRUGIO JEANPIERRE 05:10:31 F 27 274.00 ST PERE, FRANCE
118 221 PELLET BENJAMIN 05:10:32 C 19 282.00 DIJON, FRANCE
119 212 DUROUX LOIC 05:10:32 D 27 274.00 SOLOGNY, FRANCE
120 164 GAY NICOLAS 05:10:36 E 36 265.00 BLIGNY SUR OUCHE, France
121 442 CLOUARD SéBASTIEN 05:11:43 E 37 264.00 BUNCEY, FRANCE
122 237 BOURCIER THOMAS 05:11:49 C 20 281.00 MANTRY, FRANCE
123 439 ROBBIANI LOIC 05:12:08 F 28 273.00 QUINCIEUX, France
124 52 JIMENEZ NOEL 05:14:23 G1 10 291.00 CHAPONOST, France
125 437 GRANDJEAN XAVIER 05:16:50 D 28 273.00 SAINT SYMPHORIEN SUR COISE, FRANCE
126 21 CENTLIVRE FRANCK 05:17:15 D 29 272.00 GUEWENHEIM, France
127 398 MUNSCH JULIEN 05:17:44 D 30 271.00 CHANTRAINE, France
128 462 VERHOOGHE RIK 05:17:53 F 29 272.00 ieper 8900, Belgique
129 80 JOURDOIS LUDOVIC 05:17:54 F 30 271.00 CHIPILLY, France
130 14 NAEGELY GUY 05:17:57 G1 11 290.00 THANN, France
131 418 MANLHIOT FREDERIC 05:18:04 F 31 270.00 CREUZIER LE NEUF, FRANCE
132 16 ROOSE YANNIK 05:18:26 E 38 263.00 BRUXELLES, Belgique
133 459 VINCENT NICOLAS 05:18:51 D 31 270.00 LA MOTE SERVOLEX, France
134 151 HENNEUZE GILLES 05:19:33 F 32 269.00 Saint-Germain-les-Arpajon, France
135 389 DELACROIX RAPHAEL 05:19:40 F 33 268.00 MOIRANS EN MONTAGNE, France
136 337 THOMAS CHRIS 05:19:55 C 21 280.00 VERCHAIX, France
137 379 COSTE FREDERIC 05:20:26 E 39 262.00 ANDRESY, France
138 218 PATUEL IAN 05:20:56 F 34 267.00 BEVILLE LE COMTE, France
139 323 Beukema Goos 05:21:13 F 35 266.00 SLEEN, Pays-bas
140 444 COUSIN LAURENT 05:21:40 E 40 261.00 VILLEFRANCHE SUR SAONE, FRANCE
141 126 COLLIARD DOMINIQUE 05:21:40 E 41 260.00 PUSSY, France
142 32 VILLANCE JULIEN 05:21:51 G2 2 299.00 FAYS LES VENEURS, Belgique
143 109 VOLTEAU PATRICK 05:23:42 E 42 259.00 SAINT EGREVE, FRANCE
144 238 BOUTOUX ALAIN 05:25:14 G2 3 298.00 DARDILLY, FRANCE
145 144 JOUFFLINEAU FRANCOIS 05:25:14 G1 12 289.00 NEUVILLE LES DIEPPE, France
146 246 DE FRAMOND YANN 05:26:58 F 36 265.00 TASSIN, FRANCE
147 235 PEYRACHON JEAN LUC 05:27:05 F 37 264.00 ST ETIENNE DU BOIS, France
148 132 AMIET BAPTISTE 05:27:08 D 32 269.00 MEUDON, FRANCE
149 159 GADIOU PIERRE 05:27:08 G1 13 288.00 LE PLESSIS ROBINSON, FRANCE
150 137 MULOT STEPHANE 05:27:08 E 43 258.00 HAUTERIVE, FRANCE
151 443 DELEBECQUE ADRIEN 05:27:08 D 33 268.00 SAINT REMY, FRANCE
152 339 BERG TOMAS 05:27:17 F 38 263.00 ZOFINGEN, SUISSE
153 113 PHILIBERT OCEANNE 05:27:33 A 1 300.00 ROLAMPONT, FRANCE
154 309 LAGLANTINE JEAN-PIERRE 05:29:09 E 44 257.00 LAGNY-SUR-MARNE, FRANCE
155 349 DE Graaff Bert 05:29:16 G1 14 287.00 ALMERE, Pays-bas
156 440 DEPARDON AURELIE 05:29:26 A 2 299.00 ARNAS, FRANCE
157 401 DEYGAS AYMERIC 05:29:39 C 22 279.00 PARIS, FRANCE
158 365 CRASQUIN THIERRY 05:29:56 F 39 262.00 ECQUEVILLY, France
159 343 GAILLARD CHRISTOPHE 05:29:58 I 1 300.00 INGRÉ, FRANCE
160 3 GOODWIN VICKI 05:30:08 AB 1 300.00 PLAN-LES-OUATES, Suisse
161 242 BOILLON MARCEL 05:30:09 F 40 261.00 GRIEGES, FRANCE
162 436 GONçALVES PAULO 05:31:00 D 34 267.00 PUPLINGE, SUISSE
163 321 MANSILLA RAUL 05:32:26 C 23 278.00 LE CREUSOT, FRANCE
164 435 JUNET ERIC 05:34:17 F 41 260.00 RENAISON, France
165 156 GROGNUZ MARTIAL 05:34:17 F 42 259.00 CHEVILLY, SUISSE
166 416 FREYEISEN ARNAUD 05:34:22 C 24 277.00 HORBOURG WIHR, FRANCE
167 406 CARREY ERIC 05:35:48 F 43 258.00 RUNGIS, FRANCE
168 213 VALLADE ERIC 05:35:48 G1 15 286.00 Versailles, France
169 318 VAN FRAEYENHOVEN GILBERT 05:36:24 F 44 257.00 SINT-AMANDS, BELGIQUE
170 224 REBREYEND JEAN CLAUDE 05:36:24 F 45 256.00 POLLIONNAY, FRANCE
171 22 DICKHOUT JAN 05:36:24 G2 4 297.00 EINDHOVEN, Pays-Bas
172 128 PLISSON DANIEL 05:36:24 G1 16 285.00 CHALON SUR SAONE, FRANCE
173 467 KASTEL ALEXANDRE 05:36:25 E 45 256.00 MONNET LA VILLE, FRANCE
174 73 MARTIN CLAUDE 05:36:25 G2 5 296.00 CHARTRES, FRANCE
175 140 ANDRE WILLIAM 05:36:26 E 46 255.00 BROUILLET, France
176 368 BREUILLY YVAN 05:36:27 G2 6 295.00 VILLEMER, France
177 386 BONNAMOUR ALEXANDRE 05:36:27 E 47 254.00 VAL-SONNETTE, France
178 207 SPRENGERS STEFAAN 05:36:27 D 35 266.00 KEERBERGEN, Belgique
179 141 BASSERY ANDRE 05:36:27 G2 7 294.00 AGEN, France
180 13 STANESCO JOEL 05:36:30 G1 17 284.00 AUCALEUC, France
181 452 LAFLEUR MARIE 05:38:32 A 3 298.00 SAINT MEDARD EN FOREZ, FRANCE
182 245 DESSERTINE BENOIT 05:38:33 D 36 265.00 VILLEURBANNE, FRANCE
183 121 BEAUDIC THIERRY 05:40:07 F 46 255.00 LIVRY SUR SEINE, FRANCE
184 149 LASSARA ALAIN 05:40:26 G2 8 293.00 FRANCHELEINS, FRANCE
185 227 DECRENISSE THIERRY 05:43:54 G1 18 283.00 LISSIEU, France
186 208 FAVIS KEVIN 05:44:24 E 48 253.00 MODBURY, Royaume-Uni
187 399 LE COQUET LELIA 05:44:25 AB 2 299.00 CHABLIS, FRANCE
188 301 LAUER MARC 05:44:39 E 49 252.00 HOENHEIM, France
189 426 POJER ALAIN 05:45:54 E 50 251.00 THIONVILLE, FRANCE
190 427 DURAND BENOIT 05:45:54 F 47 254.00 YUTZ, FRANCE
191 328 CHARTIER SEBASTIEN 05:49:07 D 37 264.00 LE PERRAY EN YVELINES, France
192 324 DUPAYAGE CHRISTOPHE 05:49:25 D 38 263.00 CHATEAUFORT, FRANCE
193 344 MAGNONI LUCA 05:49:44 E 51 250.00 SAN GIOVANNI VALDARNO, ITALIE
194 422 RICHARD STEVE 05:49:44 E 52 249.00 LAUSANNE, SUISSE
195 446 ANTOULY THIERRY 05:52:24 F 48 253.00 COLLONGES AU MONT D OR, FRANCE
196 228 PATAY DAVID 05:52:24 E 53 248.00 LYON, France
197 378 LE SCIELLOUR PHILIPPE 05:52:48 F 49 252.00 Asnieres, France
198 460 VIAU DANIEL 05:52:50 E 54 247.00 CIEL, FRANCE
199 63 RUSSIAS JACQUES 05:53:29 G2 9 292.00 AMBERT, France
200 223 SEVE MAX 05:53:37 G1 19 282.00 AMBERIEUX EN DOMBES, FRANCE
201 248 MORTEUX NICOLAS 05:53:37 D 39 262.00 VOIRON, FRANCE
202 495 BALLANDRAS DAMIEN 05:53:42 D 40 261.00 BRUSSIEU, FRANCE
203 351 MARZOUK MOURAD 05:56:22 F 50 251.00 ASNIERE SUR SEINE, FRANCE
204 350 DERIQUE J-F 05:56:23 F 51 250.00 PARIS, FRANCE
205 317 TALPAERT CEDRIC 05:56:55 D 41 260.00 CORSEAUX, SUISSE
206 473 PEIGNE ANTHONY 05:56:58 C 25 276.00 TOUTENANT, FRANCE
207 310 BEELEN ZJEF 05:57:10 E 55 246.00 ZONHOVEN, BELGIQUE
208 217 BIZIERES MICHEL 05:58:03 G2 10 291.00 AZAY SUR CHER, France
209 472 LANG CHRISTOPHE 05:59:22 F 52 249.00 villard de lans, France
210 482 HALBEHER ERIC 05:59:22 F 53 248.00 RUEIL MALMAISON, FRANCE
211 405 RIPOCHE YANNICK 05:59:43 F 54 247.00 METZ TESSY, FRANCE
212 12 VANSPRINGEL JOSEPH 06:00:52 F 55 246.00 Vosselaar, Belgique
213 331 EDWARDS CHRIS 06:00:53 D 42 259.00 FONTAINEBLEAU, FRANCE
214 356 CREMASCHI ALAIN 06:02:13 F 56 245.00 SAINT GERMAIN LA VILLE, FRANCE
215 372 GRAMMONT EMMANUEL 06:02:13 E 56 245.00 POGNY, FRANCE
216 352 ADNET MICHEL 06:02:14 F 57 244.00 POGNY, FRANCE
217 364 ROYER MARC 06:03:15 G1 20 281.00 SAINT ETIENNE, FRANCE
218 330 BILLY VINCENT 06:04:24 D 43 258.00 Le Perray en Yvelines, France
219 360 MLYNARCZYK ARNAUD 06:05:07 E 57 244.00 REIGNIER, FRANCE
220 329 VESCO DAVID 06:06:09 D 44 257.00 VERSAILLES, FRANCE
221 404 GLUCKMAN CHRISTIAN 06:07:09 E 58 243.00 MEUDON LA FORET, FRANCE
222 420 DEMEUZOY ALAIN 06:07:09 F 58 243.00 CHALON SUR SAONE, FRANCE
223 103 THUREAU GISELE 06:08:34 B 1 300.00 CHOLET, France
224 410 NICOLAFRANCESCO ROLAND 06:08:39 G1 21 280.00 DIMIZIEU, FRANCE
225 392 CAPLAIN OLIVIER 06:10:38 F 59 242.00 CRESANTIGNES, France
226 450 JEANNE FRANCK 06:11:31 E 59 242.00 PARIS, FRANCE
227 355 FONTAINE JEAN-LOUIS 06:11:32 F 60 241.00 GENAS, FRANCE
228 376 BIARD JEAN PAUL 06:11:36 G1 22 279.00 GENAS, FRANCE
229 413 CHIARAPPA DAVID 06:13:02 E 60 241.00 MAUBEC, FRANCE
230 412 BARVILLE MARC 06:13:03 E 61 240.00 FRESNES, FRANCE
231 433 FOSSE AURELIE 06:13:50 AB 3 298.00 VALENCE, France
232 432 FOSSE LUC 06:13:50 G1 23 278.00 VALENCE, France
233 210 MEADES JEZ 06:15:58 G1 24 277.00 PAR, Royaume-Uni
234 49 TRONEL JEAN - JACQUES 06:15:58 G2 11 290.00 Saint Colomban des Villards, France
235 315 RIVALLEAU PHILIPPE 06:17:11 E 62 239.00 PARTHENAY, FRANCE
236 457 GOUARD LUDOVIC 06:18:41 E 63 238.00 AUBERMESNIL BEAUMAIS, FRANCE
237 142 VALLEZ FRANCIS 06:18:42 G1 25 276.00 AUTUN, FRANCE
238 105 JABY ERIC 06:20:20 F 61 240.00 LIVRY SUR SEINE, France
239 366 REYBET-DEGAT PIERRE-YVES 06:21:08 D 45 256.00 CHALON SUR SAôNE, FRANCE
240 311 BILLEROT JEROME 06:23:31 E 64 237.00 LE TALLUD, FRANCE
241 391 DEGRACE DIDIER 06:25:33 F 62 239.00 MARNEZIA, FRANCE
242 346 VAN BAEL LUC 06:25:47 F 63 238.00 BOOISCHOT, Belgique
243 390 VERHAEGEN ILSE 06:25:47 B 2 299.00 BOOISCHOT, Belgique
244 428 SERGEFF OLIVIER 06:29:59 E 65 236.00 HAUCONCOURT, FRANCE
245 239 DARIN BENOIT 06:30:15 G1 26 275.00 BESANCON, FRANCE
246 382 MAHIEU STEPHANE 06:34:40 E 66 235.00 SAINT FARGEAU PONTHIERRY, FRANCE
247 136 TARDIVEAU DANIEL 06:34:41 F 64 237.00 VERNOU LA CELLE, France
248 340 WILLIAMS CRAIG 06:35:35 E 67 234.00 CROZET, France
249 441 CADOUX PHILIPPE 06:40:31 G1 27 274.00 ETOILE, FRANCE
250 154 VAREILLE ERIC 06:40:31 F 65 236.00 LORIOL, FRANCE
251 380 CHOMONT YVES 06:41:01 F 66 235.00 YZEURE, FRANCE
252 332 BERTRAND CHARLES 06:46:01 E 68 233.00 SAINT MAUR DES FOSSéS, France
253 393 BAUMANN HERVE 06:46:24 H 1 300.00 PARIS, FRANCE
254 394 IAN ELLIOTT 06:46:24 H 2 299.00 BOULOGNE-BILLANCOURT, FRANCE
255 250 MARSOLLIER FRANCOIS 06:48:58 F 67 234.00 MEUDON, FRANCE
256 354 BERTRAND CHRISTOPHE 06:49:56 F 68 233.00 CALUIRE, France
257 316 WENSVEEN JOEP 06:49:57 E 69 232.00 AMSTERDAM, Pays-Bas
258 358 GRUPPEN LISBETH 06:50:10 AB 4 297.00 AMSTERDAM, Pays-Bas
259 322 KRUMMENACKER CARL 06:52:07 D 46 255.00 GENEVE, Suisse
260 134 Politakis Georges 06:54:59 F 69 232.00 Genève, Suisse
261 456 THIEBAUT CHRISTIAN 06:55:15 F 70 231.00 DIEPPE, FRANCE
262 415 MORLET JEAN YVES 06:55:15 G2 12 289.00 SAINT AUBIN SUR SCIE, FRANCE
263 336 WEENING ARCO 06:56:20 F 71 230.00 ZOETERMEER, Pays-bas
264 152 SIMONEAU ALAIN 06:57:53 G2 13 288.00 VARENGEVILLE SUR MER, FRANCE
265 334 NGUYEN SYLVAIN 07:00:24 E 70 231.00 VULAINES-SUR-SEINE, FRANCE
266 374 LAMIC JACQUES 07:08:54 F 72 229.00 PARIS, FRANCE
267 326 PETIT XAVIER 07:10:37 E 71 230.00 MALAKOFF, FRANCE
268 325 BELLOIS BERTRAND 07:10:37 E 72 229.00 CRETEIL, FRANCE
269 129 FERCHAUD LIONEL 07:28:25 D 47 254.00 Fleurville, France
270 247 ROUE DELPHINE 07:28:28 AB 5 296.00 , FRANCE
271 373 GROEN SANDER 07:28:28 E 73 228.00 AMSTERDAM, Pays-Bas
272 9 FARGUES HENRI 07:59:41 G2 14 287.00 MURAT SUR VERBE, FRANCE
273 10 FARGUES CLAUDINE 07:59:42 B 3 298.00 MURAT SUR VEBRE, FRANCE
274 56 BOURSET JACQUES 07:59:42 G1 28 273.00 SAINT BONNET DU GARD, FRANCE
TOP